Time;durP1;ratioP1;P1;durP2;ratioP2;P2;SDS_P1;SDS_P2;PMS_P1;PMS_P2;Temp;Humidity;BMP_temperature;BMP_pressure;BME280_temperature;BME280_humidity;BME280_pressure;Samples;Min_cycle;Max_cycle;Signal;HPM_P1;HPM_P2
2023/10/13 00:02:08;;;;;;;10.57;7.70;;;;;;;;;;5032830;28;20622;-65
2023/10/13 00:04:36;;;;;;;9.27;7.73;;;;;;;;;;5031597;28;20620;-65
2023/10/13 00:07:08;;;;;;;13.00;9.10;;;;;;;;;;5033526;28;20688;-66
2023/10/13 00:09:38;;;;;;;16.17;9.13;;;;;;;;;;5031245;28;20919;-66
2023/10/13 00:12:09;;;;;;;11.43;9.00;;;;;;;;;;5014137;28;21209;-66
2023/10/13 00:14:38;;;;;;;12.17;8.00;;;;;;;;;;5012991;28;20596;-66
2023/10/13 00:17:10;;;;;;;19.17;8.63;;;;;;;;;;5013224;28;20609;-65
2023/10/13 00:19:46;;;;;;;14.37;8.70;;;;;;;;;;5012773;28;20637;-67
2023/10/13 00:22:16;;;;;;;13.03;8.30;;;;;;;;;;5013024;28;20585;-67
2023/10/13 00:24:45;;;;;;;11.47;8.40;;;;;;;;;;5013212;28;20616;-67
2023/10/13 00:27:29;;;;;;;9.57;8.57;;;;;;;;;;5019969;28;21193;-66
2023/10/13 00:30:18;;;;;;;15.07;8.87;;;;;;;;;;5032752;28;20588;-67
2023/10/13 00:32:54;;;;;;;10.50;7.70;;;;;;;;;;5032076;28;20584;-67
2023/10/13 00:35:28;;;;;;;11.93;7.40;;;;;;;;;;5032461;28;20580;-67
2023/10/13 00:37:56;;;;;;;12.63;8.80;;;;;;;;;;5014662;28;21161;-67
2023/10/13 00:45:56;;;;;;;10.50;8.40;;;;;;;;;;5023379;28;20644;-67
2023/10/13 00:48:32;;;;;;;11.23;7.90;;;;;;;;;;5031713;28;20649;-67
2023/10/13 00:51:02;;;;;;;14.50;8.37;;;;;;;;;;5032186;28;20580;-68
2023/10/13 00:53:30;;;;;;;13.27;8.50;;;;;;;;;;5032482;28;20658;-67
2023/10/13 00:56:05;;;;;;;11.90;7.60;;;;;;;;;;5032480;28;20615;-67
2023/10/13 00:58:33;;;;;;;18.17;8.43;;;;;;;;;;5031754;28;20631;-67
2023/10/13 01:01:17;;;;;;;8.73;7.83;;;;;;;;;;5030149;28;20617;-66
2023/10/13 01:03:48;;;;;;;9.10;7.83;;;;;;;;;;4993495;28;20593;-66
2023/10/13 01:06:17;;;;;;;7.77;7.07;;;;;;;;;;5011738;28;20596;-66
2023/10/13 01:08:50;;;;;;;9.60;8.37;;;;;;;;;;4994549;28;20666;-67
2023/10/13 01:11:19;;;;;;;19.10;8.40;;;;;;;;;;5012256;28;21171;-66
2023/10/13 01:13:50;;;;;;;17.10;8.03;;;;;;;;;;5011583;28;20627;-67
2023/10/13 01:16:21;;;;;;;10.17;7.90;;;;;;;;;;5012360;28;20607;-67
2023/10/13 01:18:49;;;;;;;15.23;8.37;;;;;;;;;;5017526;28;20648;-67
2023/10/13 01:21:20;;;;;;;13.10;8.50;;;;;;;;;;5031803;28;20639;-67
2023/10/13 01:23:50;;;;;;;9.20;7.60;;;;;;;;;;5014000;28;20604;-67
2023/10/13 01:26:24;;;;;;;14.50;8.43;;;;;;;;;;5014220;28;20583;-67
2023/10/13 01:28:51;;;;;;;15.57;7.40;;;;;;;;;;5031164;28;20589;-67
2023/10/13 01:31:27;;;;;;;8.53;7.53;;;;;;;;;;5031830;28;20608;-66
2023/10/13 01:33:58;;;;;;;10.37;7.20;;;;;;;;;;5029581;28;20597;-67
2023/10/13 01:36:28;;;;;;;10.30;7.40;;;;;;;;;;5028616;28;20598;-67
2023/10/13 01:38:56;;;;;;;9.97;7.27;;;;;;;;;;5031017;28;21023;-66
2023/10/13 01:41:24;;;;;;;7.23;6.37;;;;;;;;;;5031758;28;20600;-67
2023/10/13 01:43:57;;;;;;;10.90;5.80;;;;;;;;;;5023335;28;20684;-67
2023/10/13 01:46:24;;;;;;;7.67;5.80;;;;;;;;;;5013760;28;21188;-67
2023/10/13 01:48:54;;;;;;;16.53;5.87;;;;;;;;;;5031312;28;20612;-67
2023/10/13 01:51:28;;;;;;;16.63;7.10;;;;;;;;;;5013560;28;20587;-67
2023/10/13 01:53:58;;;;;;;9.43;5.97;;;;;;;;;;5028906;28;20717;-67
2023/10/13 01:56:29;;;;;;;12.03;6.80;;;;;;;;;;5021315;28;20624;-66
2023/10/13 01:58:58;;;;;;;13.00;5.60;;;;;;;;;;4998538;28;20644;-67
2023/10/13 02:01:28;;;;;;;14.40;5.70;;;;;;;;;;4997376;28;21103;-67
2023/10/13 02:04:03;;;;;;;7.90;5.17;;;;;;;;;;4997545;28;20616;-66
2023/10/13 02:06:34;;;;;;;6.83;6.13;;;;;;;;;;5014713;28;20606;-67
2023/10/13 02:09:12;;;;;;;9.63;5.70;;;;;;;;;;5016583;28;20592;-66
2023/10/13 02:11:41;;;;;;;14.00;5.60;;;;;;;;;;5017341;28;20981;-67
2023/10/13 02:14:12;;;;;;;10.00;6.10;;;;;;;;;;4982071;28;20609;-66
2023/10/13 02:16:39;;;;;;;6.47;5.63;;;;;;;;;;4997741;28;20615;-65
2023/10/13 02:19:08;;;;;;;13.50;6.67;;;;;;;;;;5015254;28;21302;-66
2023/10/13 02:21:39;;;;;;;9.20;5.27;;;;;;;;;;5014443;28;20628;-66
2023/10/13 02:24:13;;;;;;;6.70;6.07;;;;;;;;;;4998014;28;20589;-66
2023/10/13 02:26:41;;;;;;;7.40;6.20;;;;;;;;;;4997209;28;20578;-67
2023/10/13 02:29:12;;;;;;;9.40;6.43;;;;;;;;;;5001769;28;20629;-67
2023/10/13 02:31:40;;;;;;;7.50;6.70;;;;;;;;;;5014585;28;20681;-66
2023/10/13 02:34:11;;;;;;;8.80;5.93;;;;;;;;;;5015039;28;20620;-66
2023/10/13 02:36:46;;;;;;;13.50;5.77;;;;;;;;;;4997293;28;20589;-67
2023/10/13 02:39:17;;;;;;;7.27;6.13;;;;;;;;;;5015256;28;20685;-67
2023/10/13 02:41:48;;;;;;;10.23;6.33;;;;;;;;;;5014090;28;20625;-67
2023/10/13 02:44:27;;;;;;;6.20;5.70;;;;;;;;;;5019740;28;20671;-66
2023/10/13 02:46:55;;;;;;;7.57;6.50;;;;;;;;;;5015710;28;20603;-67
2023/10/13 02:49:25;;;;;;;8.80;6.60;;;;;;;;;;4997496;28;20940;-67
2023/10/13 02:51:55;;;;;;;11.77;6.93;;;;;;;;;;5013871;28;21192;-67
2023/10/13 02:54:30;;;;;;;10.53;6.87;;;;;;;;;;5015180;28;20621;-67
2023/10/13 02:57:00;;;;;;;10.13;7.03;;;;;;;;;;5013880;28;21130;-66
2023/10/13 02:59:40;;;;;;;9.77;7.03;;;;;;;;;;5014712;28;20655;-67
2023/10/13 03:02:17;;;;;;;7.80;6.23;;;;;;;;;;5022357;28;20674;-66
2023/10/13 03:04:45;;;;;;;12.03;7.50;;;;;;;;;;5033272;28;20588;-66
2023/10/13 03:07:15;;;;;;;12.13;7.47;;;;;;;;;;5033288;28;20607;-67
2023/10/13 03:09:50;;;;;;;8.13;6.70;;;;;;;;;;5033791;28;20584;-67
2023/10/13 03:12:19;;;;;;;8.47;6.43;;;;;;;;;;5033717;28;20586;-67
2023/10/13 03:14:47;;;;;;;7.93;7.10;;;;;;;;;;5034323;28;21003;-67
2023/10/13 03:17:17;;;;;;;9.07;6.70;;;;;;;;;;5033773;28;20610;-67
2023/10/13 03:19:49;;;;;;;8.30;7.50;;;;;;;;;;5018743;28;20657;-67
2023/10/13 03:22:29;;;;;;;8.90;7.20;;;;;;;;;;4996739;28;20581;-67
2023/10/13 03:25:04;;;;;;;9.47;7.17;;;;;;;;;;5014269;28;20589;-67
2023/10/13 03:27:41;;;;;;;12.60;7.20;;;;;;;;;;5013997;28;20584;-66
2023/10/13 03:30:13;;;;;;;16.40;8.27;;;;;;;;;;5013935;28;20592;-67
2023/10/13 03:32:47;;;;;;;13.77;7.23;;;;;;;;;;4996062;28;20587;-67
2023/10/13 03:35:23;;;;;;;11.47;7.33;;;;;;;;;;5014610;28;20604;-67
2023/10/13 03:37:52;;;;;;;12.73;7.20;;;;;;;;;;5013683;28;20592;-67
2023/10/13 03:40:35;;;;;;;15.87;8.90;;;;;;;;;;5013899;28;20656;-67
2023/10/13 03:43:04;;;;;;;11.67;6.87;;;;;;;;;;5013509;28;21006;-67
2023/10/13 03:45:37;;;;;;;9.47;7.10;;;;;;;;;;5032378;28;20636;-67
2023/10/13 03:48:08;;;;;;;8.23;7.37;;;;;;;;;;5011062;28;20609;-67
2023/10/13 03:50:37;;;;;;;9.63;7.03;;;;;;;;;;5014064;28;20595;-66
2023/10/13 03:53:11;;;;;;;9.13;6.87;;;;;;;;;;5013804;28;21246;-66
2023/10/13 03:55:47;;;;;;;12.20;6.53;;;;;;;;;;5030813;28;20604;-67
2023/10/13 03:58:16;;;;;;;13.30;7.57;;;;;;;;;;5033438;28;20602;-62
2023/10/13 04:00:45;;;;;;;13.87;8.30;;;;;;;;;;5036322;28;20660;-63
2023/10/13 04:03:16;;;;;;;12.30;6.97;;;;;;;;;;5017077;28;20604;-64
2023/10/13 04:06:00;;;;;;;11.77;7.07;;;;;;;;;;5017686;28;20604;-62
2023/10/13 04:08:48;;;;;;;9.40;6.43;;;;;;;;;;5035231;28;20588;-63
2023/10/13 04:16:54;;;;;;;12.73;7.17;;;;;;;;;;5015492;28;20725;-62
2023/10/13 04:19:25;;;;;;;19.03;7.50;;;;;;;;;;5015236;28;20635;-62
2023/10/13 04:21:58;;;;;;;13.07;6.57;;;;;;;;;;5016106;28;20598;-62
2023/10/13 04:25:00;;;;;;;11.80;7.80;;;;;;;;;;5015201;28;20692;-62
2023/10/13 04:27:53;;;;;;;10.60;8.30;;;;;;;;;;5002448;28;20687;-63
2023/10/13 04:30:27;;;;;;;9.20;7.30;;;;;;;;;;5035397;28;21162;-62
2023/10/13 04:33:17;;;;;;;11.93;8.67;;;;;;;;;;5035313;28;20558;-62
2023/10/13 04:35:57;;;;;;;14.07;7.70;;;;;;;;;;5035373;28;20683;-63
2023/10/13 04:38:33;;;;;;;11.33;7.63;;;;;;;;;;5035228;28;20718;-62
2023/10/13 04:41:01;;;;;;;11.83;7.90;;;;;;;;;;5035648;28;20649;-62
2023/10/13 04:43:54;;;;;;;12.93;7.27;;;;;;;;;;5035016;28;20734;-62
2023/10/13 04:46:35;;;;;;;8.97;7.33;;;;;;;;;;5026519;28;20742;-62
2023/10/13 04:49:09;;;;;;;9.27;6.03;;;;;;;;;;5013241;28;20629;-61
2023/10/13 04:51:53;;;;;;;10.73;6.13;;;;;;;;;;4998357;28;20691;-64
2023/10/13 04:54:33;;;;;;;11.80;6.33;;;;;;;;;;5015897;28;21252;-64
2023/10/13 05:02:54;;;;;;;8.43;6.33;;;;;;;;;;5032120;28;20612;-61
2023/10/13 05:05:45;;;;;;;13.93;7.07;;;;;;;;;;5032034;28;21245;-62
2023/10/13 05:49:52;;;;;;;7.75;5.85;;;;;;;;;;5032406;28;21342;-66
2023/10/13 06:28:40;;;;;;;15.73;7.00;;;;;;;;;;5010774;28;20292;-65
2023/10/13 06:28:41;;;;;;;10.40;5.63;;;;;;;;;;4972491;28;20675;-67
2023/10/13 06:31:14;;;;;;;9.70;5.27;;;;;;;;;;5013626;28;20624;-67
2023/10/13 06:33:45;;;;;;;5.53;4.40;;;;;;;;;;5026104;28;20606;-66
2023/10/13 06:36:13;;;;;;;5.97;5.07;;;;;;;;;;5013160;28;20591;-66
2023/10/13 06:38:42;;;;;;;9.23;6.03;;;;;;;;;;5031482;28;20874;-66
2023/10/13 06:41:19;;;;;;;8.33;5.60;;;;;;;;;;5034441;28;21448;-67
2023/10/13 06:43:59;;;;;;;10.20;5.30;;;;;;;;;;5028887;28;20786;-67
2023/10/13 06:46:28;;;;;;;8.53;5.23;;;;;;;;;;4997475;28;20563;-66
2023/10/13 06:48:59;;;;;;;6.57;5.90;;;;;;;;;;5014739;28;20698;-67
2023/10/13 06:51:31;;;;;;;11.00;5.60;;;;;;;;;;5013373;28;20608;-68
2023/10/13 06:54:02;;;;;;;8.67;5.90;;;;;;;;;;5034402;28;20599;-66
2023/10/13 06:56:30;;;;;;;8.83;5.50;;;;;;;;;;5034742;28;20598;-68
2023/10/13 06:59:02;;;;;;;8.33;5.87;;;;;;;;;;5034400;28;20616;-67
2023/10/13 07:01:38;;;;;;;5.53;5.00;;;;;;;;;;5033270;28;20665;-67
2023/10/13 07:04:13;;;;;;;9.10;5.73;;;;;;;;;;5033915;28;20592;-69
2023/10/13 07:06:48;;;;;;;9.30;5.47;;;;;;;;;;5028455;28;20964;-66
2023/10/13 07:09:40;;;;;;;8.40;5.67;;;;;;;;;;5017135;28;20616;-68
2023/10/13 07:12:16;;;;;;;11.80;5.50;;;;;;;;;;5022124;28;21001;-65
2023/10/13 07:14:52;;;;;;;9.40;5.53;;;;;;;;;;5034161;28;20588;-65
2023/10/13 07:17:27;;;;;;;6.10;5.50;;;;;;;;;;5034070;28;20649;-65
2023/10/13 07:19:59;;;;;;;7.13;6.37;;;;;;;;;;5036648;28;20579;-63
2023/10/13 07:22:27;;;;;;;12.90;6.03;;;;;;;;;;5036795;28;20545;-62
2023/10/13 07:24:58;;;;;;;8.40;5.97;;;;;;;;;;5006676;28;21443;-61
2023/10/13 07:27:26;;;;;;;11.40;6.13;;;;;;;;;;5028058;28;20683;-61
2023/10/13 07:30:06;;;;;;;12.00;5.90;;;;;;;;;;5037418;28;20680;-61
2023/10/13 07:32:34;;;;;;;12.40;6.50;;;;;;;;;;5036046;28;20587;-61
2023/10/13 07:35:07;;;;;;;6.60;5.73;;;;;;;;;;5037143;28;20714;-62
2023/10/13 07:37:35;;;;;;;9.07;6.30;;;;;;;;;;5036786;28;20581;-61
2023/10/13 07:40:21;;;;;;;13.13;6.93;;;;;;;;;;5038460;28;20758;-63
2023/10/13 07:42:50;;;;;;;10.27;6.00;;;;;;;;;;5023288;28;20639;-60
2023/10/13 07:45:24;;;;;;;10.57;6.20;;;;;;;;;;5036747;28;20670;-62
2023/10/13 07:47:52;;;;;;;15.17;6.70;;;;;;;;;;5037350;28;20699;-63
2023/10/13 07:50:25;;;;;;;7.53;6.80;;;;;;;;;;5033887;28;20693;-62
2023/10/13 07:53:04;;;;;;;9.70;5.60;;;;;;;;;;5036584;28;20695;-60
2023/10/13 07:55:38;;;;;;;5.90;5.50;;;;;;;;;;5036765;28;20649;-60
2023/10/13 07:58:07;;;;;;;6.10;5.57;;;;;;;;;;5037059;28;20671;-64
2023/10/13 08:03:43;;;;;;;7.60;6.70;;;;;;;;;;5031905;28;20985;-61
2023/10/13 08:06:21;;;;;;;6.80;6.20;;;;;;;;;;5032071;28;20623;-63
2023/10/13 08:08:55;;;;;;;8.90;7.10;;;;;;;;;;5034318;28;20928;-62
2023/10/13 08:11:34;;;;;;;7.33;6.50;;;;;;;;;;5034655;28;20642;-61
2023/10/13 08:14:11;;;;;;;8.47;6.60;;;;;;;;;;5035427;28;20594;-61
2023/10/13 08:16:49;;;;;;;8.00;7.20;;;;;;;;;;5035594;28;20588;-61
2023/10/13 08:19:18;;;;;;;7.60;6.90;;;;;;;;;;5035049;28;21167;-62
2023/10/13 08:21:51;;;;;;;11.13;7.20;;;;;;;;;;5034383;28;20659;-62
2023/10/13 08:24:28;;;;;;;11.83;7.30;;;;;;;;;;5034862;28;20594;-62
2023/10/13 08:26:57;;;;;;;7.50;6.90;;;;;;;;;;5032949;28;20730;-63
2023/10/13 08:32:36;;;;;;;9.37;7.53;;;;;;;;;;5034268;28;20654;-63
2023/10/13 08:35:22;;;;;;;12.67;8.73;;;;;;;;;;5034332;28;20606;-63
2023/10/13 08:38:13;;;;;;;8.40;7.80;;;;;;;;;;5033931;28;20580;-63
2023/10/13 08:43:45;;;;;;;12.63;7.97;;;;;;;;;;5026370;28;21095;-64
2023/10/13 08:49:04;;;;;;;8.83;7.70;;;;;;;;;;5011475;28;20747;-63
2023/10/13 08:51:44;;;;;;;8.70;8.00;;;;;;;;;;5015369;28;20588;-64
2023/10/13 08:54:20;;;;;;;10.50;8.33;;;;;;;;;;5027665;28;20607;-64
2023/10/13 08:56:56;;;;;;;10.07;9.07;;;;;;;;;;5033423;28;20965;-64
2023/10/13 08:59:38;;;;;;;16.20;8.30;;;;;;;;;;5033405;28;20614;-63
2023/10/13 09:02:16;;;;;;;9.10;8.00;;;;;;;;;;5015442;28;20644;-64
2023/10/13 09:04:47;;;;;;;9.03;8.00;;;;;;;;;;5034402;28;21086;-61
2023/10/13 09:07:21;;;;;;;9.80;8.83;;;;;;;;;;5035601;28;20656;-62
2023/10/13 09:13:00;;;;;;;11.07;8.33;;;;;;;;;;5034641;28;20710;-67
2023/10/13 09:18:41;;;;;;;8.70;7.90;;;;;;;;;;5031770;28;20631;-63
2023/10/13 09:24:16;;;;;;;8.83;8.10;;;;;;;;;;5032569;28;20645;-63
2023/10/13 09:26:44;;;;;;;9.70;8.57;;;;;;;;;;5032839;28;20600;-63
2023/10/13 09:29:18;;;;;;;9.20;8.40;;;;;;;;;;5031984;28;20618;-62
2023/10/13 09:32:00;;;;;;;8.83;8.00;;;;;;;;;;5032540;28;21215;-63
2023/10/13 09:34:31;;;;;;;9.97;9.00;;;;;;;;;;5036859;28;20675;-61
2023/10/13 09:36:59;;;;;;;11.23;8.20;;;;;;;;;;5037210;28;20711;-61
2023/10/13 09:39:34;;;;;;;13.07;8.47;;;;;;;;;;5034808;28;20634;-62
2023/10/13 09:42:03;;;;;;;8.57;7.87;;;;;;;;;;5031863;28;20649;-62
2023/10/13 09:44:31;;;;;;;9.30;8.27;;;;;;;;;;5015951;28;20735;-62
2023/10/13 09:47:07;;;;;;;11.03;8.57;;;;;;;;;;5014644;28;20613;-62
2023/10/13 09:49:46;;;;;;;15.43;9.00;;;;;;;;;;5014709;28;20704;-63
2023/10/13 09:52:19;;;;;;;13.37;9.40;;;;;;;;;;5013610;28;20585;-62
2023/10/13 09:54:59;;;;;;;10.37;9.47;;;;;;;;;;5013905;28;20653;-63
2023/10/13 09:57:29;;;;;;;10.70;8.80;;;;;;;;;;5012814;28;20580;-62
2023/10/13 10:00:06;;;;;;;13.33;9.03;;;;;;;;;;5013981;28;20624;-62
2023/10/13 10:02:44;;;;;;;10.33;9.33;;;;;;;;;;4994290;28;20994;-63
2023/10/13 10:05:21;;;;;;;10.53;9.07;;;;;;;;;;4993499;28;21031;-62
2023/10/13 10:07:55;;;;;;;10.20;9.17;;;;;;;;;;4994898;28;20692;-63
2023/10/13 10:10:24;;;;;;;9.30;8.47;;;;;;;;;;4997085;28;20673;-67
2023/10/13 10:12:57;;;;;;;13.50;9.53;;;;;;;;;;4997269;28;20689;-64
2023/10/13 10:15:33;;;;;;;11.10;8.90;;;;;;;;;;4999870;28;20668;-64
2023/10/13 10:18:03;;;;;;;12.33;9.47;;;;;;;;;;5001369;28;20689;-64
2023/10/13 10:20:42;;;;;;;11.80;8.80;;;;;;;;;;5001165;28;20677;-64
2023/10/13 10:23:14;;;;;;;16.30;9.37;;;;;;;;;;4996727;28;20633;-65
2023/10/13 10:25:44;;;;;;;9.03;8.43;;;;;;;;;;4997311;28;20590;-65
2023/10/13 10:28:15;;;;;;;10.33;8.80;;;;;;;;;;4996964;28;20987;-64
2023/10/13 10:30:44;;;;;;;10.43;9.43;;;;;;;;;;4997222;28;20592;-63
2023/10/13 10:33:15;;;;;;;10.73;9.63;;;;;;;;;;4995591;28;20619;-64
2023/10/13 10:35:44;;;;;;;11.47;9.43;;;;;;;;;;4996677;28;20590;-63
2023/10/13 10:38:15;;;;;;;9.97;9.07;;;;;;;;;;5002311;28;20627;-64
2023/10/13 10:40:56;;;;;;;10.53;9.30;;;;;;;;;;5016935;28;20624;-63
2023/10/13 10:43:27;;;;;;;10.73;8.93;;;;;;;;;;5018433;28;21064;-65
2023/10/13 10:45:59;;;;;;;11.80;9.63;;;;;;;;;;5036227;28;21675;-64
2023/10/13 10:48:34;;;;;;;11.40;10.23;;;;;;;;;;5035623;28;20608;-64
2023/10/13 10:51:08;;;;;;;10.87;9.90;;;;;;;;;;5034950;28;20587;-65
2023/10/13 10:53:44;;;;;;;12.70;9.93;;;;;;;;;;5035328;28;20580;-65
2023/10/13 10:56:24;;;;;;;10.60;9.70;;;;;;;;;;5034369;28;20949;-65
2023/10/13 10:58:55;;;;;;;11.00;10.13;;;;;;;;;;5035132;28;20595;-65
2023/10/13 11:01:24;;;;;;;11.50;10.27;;;;;;;;;;5031088;28;20608;-63
2023/10/13 11:03:58;;;;;;;10.67;9.77;;;;;;;;;;5033668;28;20615;-64
2023/10/13 11:06:26;;;;;;;11.63;10.17;;;;;;;;;;5032896;28;20606;-64
2023/10/13 11:09:07;;;;;;;12.77;10.57;;;;;;;;;;5036353;28;21314;-62
2023/10/13 11:11:36;;;;;;;12.37;11.07;;;;;;;;;;5037545;28;20610;-64
2023/10/13 11:14:17;;;;;;;14.90;10.53;;;;;;;;;;5038227;28;20703;-63
2023/10/13 11:16:53;;;;;;;11.97;10.40;;;;;;;;;;5035635;28;20594;-64
2023/10/13 11:19:27;;;;;;;12.00;10.90;;;;;;;;;;5037743;28;20615;-63
2023/10/13 11:21:57;;;;;;;11.60;10.63;;;;;;;;;;5037080;28;20677;-64
2023/10/13 11:24:26;;;;;;;11.47;10.47;;;;;;;;;;5039107;28;20695;-64
2023/10/13 11:26:54;;;;;;;17.30;11.40;;;;;;;;;;5034036;28;20662;-63
2023/10/13 11:29:34;;;;;;;12.10;10.97;;;;;;;;;;5037259;28;20964;-64
2023/10/13 11:32:03;;;;;;;11.97;10.97;;;;;;;;;;5035333;28;21008;-63
2023/10/13 11:34:40;;;;;;;12.03;10.87;;;;;;;;;;5037042;28;20622;-63
2023/10/13 11:39:55;;;;;;;13.30;11.20;;;;;;;;;;5037074;28;20686;-64
2023/10/13 11:42:26;;;;;;;11.83;10.80;;;;;;;;;;5035016;28;20752;-63
2023/10/13 11:45:15;;;;;;;11.67;10.27;;;;;;;;;;5026873;28;20623;-65
2023/10/13 11:47:58;;;;;;;13.43;10.33;;;;;;;;;;5034646;28;20675;-64
2023/10/13 11:50:33;;;;;;;11.83;10.73;;;;;;;;;;5035144;28;20595;-64
2023/10/13 11:53:07;;;;;;;13.23;11.83;;;;;;;;;;5017981;28;20579;-63
2023/10/13 11:55:36;;;;;;;11.97;10.97;;;;;;;;;;5018146;28;20594;-63
2023/10/13 11:58:05;;;;;;;13.23;11.50;;;;;;;;;;5035058;28;20627;-64
2023/10/13 12:06:22;;;;;;;11.77;10.87;;;;;;;;;;5032060;28;20596;-64
2023/10/13 12:08:51;;;;;;;12.37;10.57;;;;;;;;;;5031853;28;20608;-64
2023/10/13 12:14:11;;;;;;;14.00;11.17;;;;;;;;;;5011481;28;20624;-64
2023/10/13 12:16:39;;;;;;;11.60;10.27;;;;;;;;;;5033744;28;20603;-64
2023/10/13 12:19:11;;;;;;;11.67;10.67;;;;;;;;;;5015278;28;20620;-64
2023/10/13 12:21:43;;;;;;;13.33;11.10;;;;;;;;;;5029242;28;20649;-67
2023/10/13 12:24:22;;;;;;;12.03;10.87;;;;;;;;;;5047862;28;20656;-68
2023/10/13 12:26:55;;;;;;;11.87;10.97;;;;;;;;;;5042631;28;20622;-67
2023/10/13 12:29:28;;;;;;;12.47;10.20;;;;;;;;;;5045095;28;20672;-68
2023/10/13 12:32:07;;;;;;;11.13;10.33;;;;;;;;;;5045733;28;20643;-67
2023/10/13 12:37:38;;;;;;;11.23;10.37;;;;;;;;;;5044891;28;21165;-68
2023/10/13 12:51:40;;;;;;;12.10;10.90;;;;;;;;;;5024399;28;20660;-68
2023/10/13 12:54:15;;;;;;;11.87;10.90;;;;;;;;;;5024917;28;20640;-68
2023/10/13 12:56:43;;;;;;;11.53;10.50;;;;;;;;;;5025474;28;20648;-68
2023/10/13 12:59:13;;;;;;;11.67;10.57;;;;;;;;;;5025726;28;20644;-68
2023/10/13 13:01:43;;;;;;;11.07;10.10;;;;;;;;;;5039089;28;20695;-69
2023/10/13 13:04:18;;;;;;;12.10;10.27;;;;;;;;;;5044372;28;20712;-68
2023/10/13 13:06:46;;;;;;;12.13;10.90;;;;;;;;;;5044459;28;20687;-68
2023/10/13 13:09:24;;;;;;;12.37;10.37;;;;;;;;;;5046666;28;20711;-68
2023/10/13 13:11:52;;;;;;;12.10;10.70;;;;;;;;;;5059648;28;20618;-69
2023/10/13 13:14:20;;;;;;;13.70;10.50;;;;;;;;;;5052645;28;20648;-68
2023/10/13 13:16:50;;;;;;;11.10;10.30;;;;;;;;;;5044420;28;20604;-67
2023/10/13 13:19:25;;;;;;;12.03;11.03;;;;;;;;;;5043613;28;20706;-68
2023/10/13 13:21:53;;;;;;;11.10;10.20;;;;;;;;;;5043701;28;20619;-67
2023/10/13 13:24:23;;;;;;;14.73;11.87;;;;;;;;;;5045953;28;20727;-68
2023/10/13 13:26:54;;;;;;;13.17;11.23;;;;;;;;;;5049246;28;20655;-69
2023/10/13 13:29:23;;;;;;;17.47;11.57;;;;;;;;;;5045433;28;20636;-68
2023/10/13 13:31:52;;;;;;;12.47;11.47;;;;;;;;;;5045677;28;21030;-68
2023/10/13 13:34:21;;;;;;;16.67;13.43;;;;;;;;;;5045695;28;20644;-68
2023/10/13 13:36:52;;;;;;;12.00;10.93;;;;;;;;;;5047247;28;20636;-67
2023/10/13 13:39:28;;;;;;;27.10;24.47;;;;;;;;;;5046119;28;20620;-67
2023/10/13 13:41:58;;;;;;;31.17;28.50;;;;;;;;;;5044409;28;20678;-67
2023/10/13 13:44:34;;;;;;;23.23;21.37;;;;;;;;;;5042597;28;21316;-67
2023/10/13 13:47:05;;;;;;;17.83;14.67;;;;;;;;;;5043276;28;20680;-67
2023/10/13 13:49:40;;;;;;;14.10;13.00;;;;;;;;;;5042776;28;20670;-69
2023/10/13 13:52:09;;;;;;;11.83;11.00;;;;;;;;;;5042916;28;20675;-68
2023/10/13 13:54:40;;;;;;;15.20;10.33;;;;;;;;;;5043553;28;20699;-68
2023/10/13 13:57:10;;;;;;;11.47;10.40;;;;;;;;;;5044004;28;20680;-68
2023/10/13 13:59:38;;;;;;;11.50;10.30;;;;;;;;;;5043186;28;20683;-68
2023/10/13 14:02:19;;;;;;;11.57;10.63;;;;;;;;;;5041908;28;20784;-68
2023/10/13 14:04:50;;;;;;;13.07;11.97;;;;;;;;;;5039957;28;20711;-68
2023/10/13 14:07:20;;;;;;;10.87;9.77;;;;;;;;;;5034001;28;20697;-68
2023/10/13 14:09:51;;;;;;;11.83;10.37;;;;;;;;;;5042490;28;20684;-69
2023/10/13 14:12:29;;;;;;;11.20;10.20;;;;;;;;;;5039901;28;20691;-68
2023/10/13 14:14:57;;;;;;;10.80;10.00;;;;;;;;;;5042071;28;20687;-69
2023/10/13 14:17:28;;;;;;;11.10;10.03;;;;;;;;;;5042690;28;20711;-69
2023/10/13 14:19:58;;;;;;;10.57;9.47;;;;;;;;;;5042928;28;20691;-68
2023/10/13 14:22:28;;;;;;;15.93;10.57;;;;;;;;;;5043243;28;20715;-69
2023/10/13 14:24:56;;;;;;;11.67;10.97;;;;;;;;;;5042698;28;20703;-69
2023/10/13 14:27:26;;;;;;;11.07;10.07;;;;;;;;;;5043463;28;20770;-69
2023/10/13 14:29:57;;;;;;;11.27;10.30;;;;;;;;;;5043437;28;20674;-69
2023/10/13 14:32:27;;;;;;;11.10;9.93;;;;;;;;;;5044091;28;20676;-69
2023/10/13 14:34:56;;;;;;;11.33;10.33;;;;;;;;;;5043842;28;20676;-69
2023/10/13 14:37:29;;;;;;;13.57;10.60;;;;;;;;;;5044699;28;20696;-68
2023/10/13 14:39:58;;;;;;;11.10;9.93;;;;;;;;;;5044960;28;20620;-69
2023/10/13 14:42:28;;;;;;;19.07;10.10;;;;;;;;;;5043926;28;21308;-69
2023/10/13 14:45:00;;;;;;;11.97;10.60;;;;;;;;;;5046054;28;21205;-68
2023/10/13 14:47:28;;;;;;;10.90;9.90;;;;;;;;;;5045503;28;20612;-69
2023/10/13 14:49:59;;;;;;;11.13;9.97;;;;;;;;;;5044549;28;20696;-69
2023/10/13 14:52:31;;;;;;;13.53;10.00;;;;;;;;;;5027507;28;20667;-68
2023/10/13 14:54:59;;;;;;;13.80;10.30;;;;;;;;;;5028279;28;20655;-68
2023/10/13 14:57:29;;;;;;;11.40;10.33;;;;;;;;;;5045270;28;21212;-68
2023/10/13 14:59:58;;;;;;;10.97;10.17;;;;;;;;;;5044852;28;20676;-68
2023/10/13 15:02:26;;;;;;;10.50;9.70;;;;;;;;;;5047068;28;20699;-68
2023/10/13 15:04:55;;;;;;;11.13;9.90;;;;;;;;;;5047079;28;21280;-68
2023/10/13 15:07:27;;;;;;;16.00;10.20;;;;;;;;;;5047033;28;20719;-69
2023/10/13 15:09:56;;;;;;;10.87;9.83;;;;;;;;;;5048296;28;20635;-69
2023/10/13 15:12:25;;;;;;;11.43;10.30;;;;;;;;;;5048254;28;20695;-68
2023/10/13 15:14:58;;;;;;;11.93;10.07;;;;;;;;;;5048562;28;20643;-68
2023/10/13 15:17:28;;;;;;;13.27;10.67;;;;;;;;;;5047928;28;21140;-68
2023/10/13 15:19:56;;;;;;;11.90;10.80;;;;;;;;;;5047211;28;20662;-67
2023/10/13 15:22:27;;;;;;;11.97;9.60;;;;;;;;;;5039626;28;20701;-68
2023/10/13 15:25:08;;;;;;;11.00;9.57;;;;;;;;;;5048156;28;20659;-68
2023/10/13 15:27:41;;;;;;;14.10;9.60;;;;;;;;;;5048587;28;20603;-67
2023/10/13 15:30:20;;;;;;;10.63;9.73;;;;;;;;;;5048402;28;21012;-68
2023/10/13 15:32:48;;;;;;;10.20;9.30;;;;;;;;;;5030867;28;20667;-68
2023/10/13 15:35:17;;;;;;;11.07;9.93;;;;;;;;;;5029438;28;20707;-68
2023/10/13 15:37:48;;;;;;;11.27;10.20;;;;;;;;;;5047568;28;20635;-68
2023/10/13 15:40:16;;;;;;;18.33;9.63;;;;;;;;;;5046956;28;20630;-68
2023/10/13 15:42:44;;;;;;;10.90;9.80;;;;;;;;;;5046677;28;20651;-68
2023/10/13 15:45:17;;;;;;;13.37;9.80;;;;;;;;;;5020541;28;20740;-68
2023/10/13 15:47:46;;;;;;;11.37;10.10;;;;;;;;;;5010557;28;20681;-68
2023/10/13 15:50:18;;;;;;;10.93;9.97;;;;;;;;;;5030948;28;20652;-67
2023/10/13 15:52:46;;;;;;;10.87;10.10;;;;;;;;;;5033236;28;20605;-67
2023/10/13 15:55:17;;;;;;;10.90;9.87;;;;;;;;;;5032713;28;20624;-68
2023/10/13 15:57:52;;;;;;;11.03;10.30;;;;;;;;;;5014927;28;20593;-68
2023/10/13 16:00:25;;;;;;;11.57;10.07;;;;;;;;;;5035990;28;20623;-67
2023/10/13 16:02:54;;;;;;;12.90;10.00;;;;;;;;;;5051377;28;20613;-67
2023/10/13 16:05:23;;;;;;;9.63;9.03;;;;;;;;;;5032820;28;20711;-67
2023/10/13 16:07:52;;;;;;;10.33;9.47;;;;;;;;;;5051646;28;20647;-67
2023/10/13 16:10:22;;;;;;;10.00;8.97;;;;;;;;;;5051962;28;20647;-68
2023/10/13 16:12:51;;;;;;;10.10;9.17;;;;;;;;;;5050800;28;20599;-68
2023/10/13 16:15:21;;;;;;;10.00;9.20;;;;;;;;;;5050447;28;20647;-68
2023/10/13 16:17:53;;;;;;;10.30;9.40;;;;;;;;;;5051935;28;21051;-67
2023/10/13 16:20:22;;;;;;;10.70;9.60;;;;;;;;;;5051929;28;20608;-68
2023/10/13 16:22:50;;;;;;;17.63;9.33;;;;;;;;;;5051983;28;20616;-68
2023/10/13 16:25:21;;;;;;;10.67;9.77;;;;;;;;;;5051459;28;20683;-68
2023/10/13 16:27:49;;;;;;;9.80;9.30;;;;;;;;;;5051272;28;20674;-68
2023/10/13 16:30:19;;;;;;;10.30;9.47;;;;;;;;;;5050820;28;20648;-67
2023/10/13 16:32:49;;;;;;;9.53;9.00;;;;;;;;;;5051587;28;20676;-68
2023/10/13 16:35:19;;;;;;;10.50;9.60;;;;;;;;;;5051438;28;20656;-68
2023/10/13 16:37:50;;;;;;;13.23;10.17;;;;;;;;;;5050481;28;20610;-68
2023/10/13 16:40:19;;;;;;;16.80;10.30;;;;;;;;;;5049884;28;21022;-68
2023/10/13 16:42:47;;;;;;;10.47;9.63;;;;;;;;;;5030032;28;20684;-68
2023/10/13 16:45:20;;;;;;;11.97;9.70;;;;;;;;;;5032111;28;20694;-68
2023/10/13 16:47:48;;;;;;;10.27;9.20;;;;;;;;;;5042993;28;20627;-69
2023/10/13 16:50:18;;;;;;;16.77;9.90;;;;;;;;;;5033737;28;20660;-68
2023/10/13 16:52:47;;;;;;;11.50;9.23;;;;;;;;;;5049365;28;20643;-69
2023/10/13 16:55:17;;;;;;;8.73;8.23;;;;;;;;;;5051225;28;20643;-69
2023/10/13 16:57:46;;;;;;;10.30;9.13;;;;;;;;;;5050977;28;20630;-69
2023/10/13 17:00:14;;;;;;;10.37;9.37;;;;;;;;;;5050046;28;20696;-69
2023/10/13 17:02:43;;;;;;;10.73;9.93;;;;;;;;;;5031196;28;20659;-69
2023/10/13 17:05:12;;;;;;;10.57;9.17;;;;;;;;;;5049866;28;20728;-69
2023/10/13 17:07:42;;;;;;;10.73;9.90;;;;;;;;;;5049771;28;20652;-69
2023/10/13 17:10:11;;;;;;;9.47;8.77;;;;;;;;;;5032398;28;20647;-69
2023/10/13 17:12:39;;;;;;;9.87;9.17;;;;;;;;;;5050006;28;20667;-68
2023/10/13 17:15:13;;;;;;;10.30;8.40;;;;;;;;;;5049032;28;20694;-70
2023/10/13 17:17:44;;;;;;;9.60;8.83;;;;;;;;;;5046020;28;20631;-67
2023/10/13 17:20:12;;;;;;;10.23;9.30;;;;;;;;;;5014012;28;20632;-68
2023/10/13 17:22:42;;;;;;;10.50;9.80;;;;;;;;;;5048945;28;20623;-69